EZY29TH LPPR-EGKK
Flight info
| Callsign | EZY29TH |
|---|---|
| Flight time | 1h 49m |
| Altitude | 36000 |
| Route | TURON P600 ASDEB/N0455F360 DCT KORUL DCT FEJAC DCT JSY/N0444F340 DCT REVTU/N0427F280 UP88 ODREP/N0404F240 P88 VASUX |
| Aircraft | A320/M-SDE3FGHIRWY/LB1 |
Departure
| Time | 2026-05-04 15:16 |
|---|---|
| Airport | Francisco de Sá Carneiro Airport (LPPR) |
Arrival
| Time | 2026-05-04 17:06 |
|---|---|
| Airport | London Gatwick Airport (EGKK) |
| Time | Latitude | Longitude | Altitude | Speed | Heading |
|---|---|---|---|---|---|
| 2026-05-04 14:40 | 41.23900 | -8.67386 | 244 ft | 0 kts | 124° |
| 2026-05-04 14:41 | 41.23869 | -8.67386 | 245 ft | 0 kts | 79° |
| 2026-05-04 15:02 | 41.23866 | -8.67402 | 243 ft | 4 kts | 78° |
| 2026-05-04 15:02 | 41.23861 | -8.67437 | 242 ft | 4 kts | 83° |
| 2026-05-04 15:03 | 41.23861 | -8.67471 | 240 ft | 4 kts | 111° |
| 2026-05-04 15:03 | 41.23870 | -8.67488 | 239 ft | 1 kts | 169° |
| 2026-05-04 15:05 | 41.23861 | -8.67485 | 239 ft | 4 kts | 169° |
| 2026-05-04 15:05 | 41.23813 | -8.67473 | 239 ft | 8 kts | 169° |
| 2026-05-04 15:06 | 41.23776 | -8.67463 | 239 ft | 0 kts | 169° |
| 2026-05-04 15:09 | 41.23771 | -8.67462 | 239 ft | 3 kts | 169° |
| 2026-05-04 15:09 | 41.23731 | -8.67452 | 238 ft | 9 kts | 169° |
| 2026-05-04 15:10 | 41.23625 | -8.67518 | 234 ft | 8 kts | 261° |
| 2026-05-04 15:10 | 41.23618 | -8.67576 | 236 ft | 6 kts | 259° |
| 2026-05-04 15:10 | 41.23616 | -8.67587 | 234 ft | 0 kts | 259° |
| 2026-05-04 15:11 | 41.23613 | -8.67604 | 233 ft | 2 kts | 259° |
| 2026-05-04 15:12 | 41.23611 | -8.67625 | 233 ft | 2 kts | 259° |
| 2026-05-04 15:12 | 41.23609 | -8.67637 | 233 ft | 1 kts | 259° |
| 2026-05-04 15:12 | 41.23608 | -8.67642 | 233 ft | 0 kts | 259° |
| 2026-05-04 15:12 | 41.23604 | -8.67671 | 233 ft | 3 kts | 258° |
| 2026-05-04 15:13 | 41.23603 | -8.67675 | 233 ft | 0 kts | 258° |
| 2026-05-04 15:13 | 41.23601 | -8.67688 | 235 ft | 5 kts | 258° |
| 2026-05-04 15:14 | 41.23588 | -8.67772 | 233 ft | 13 kts | 263° |
| 2026-05-04 15:14 | 41.23659 | -8.67824 | 230 ft | 7 kts | 349° |
| 2026-05-04 15:14 | 41.23664 | -8.67825 | 230 ft | 0 kts | 349° |
| 2026-05-04 15:15 | 41.23665 | -8.67826 | 230 ft | 1 kts | 349° |
| 2026-05-04 15:16 | 41.24300 | -8.67992 | 217 ft | 110 kts | 349° |
| 2026-05-04 15:16 | 41.25219 | -8.68238 | 330 ft | 147 kts | 344° |
| 2026-05-04 15:16 | 41.27252 | -8.68779 | 1684 ft | 154 kts | 343° |
| 2026-05-04 15:17 | 41.28382 | -8.69079 | 2063 ft | 175 kts | 346° |
| 2026-05-04 15:17 | 41.31009 | -8.69785 | 2805 ft | 211 kts | 344° |
| 2026-05-04 15:17 | 41.32526 | -8.70188 | 3281 ft | 229 kts | 345° |
| 2026-05-04 15:18 | 41.34102 | -8.70596 | 4054 ft | 233 kts | 345° |
| 2026-05-04 15:18 | 41.35755 | -8.71024 | 4640 ft | 250 kts | 345° |
| 2026-05-04 15:18 | 41.37482 | -8.71470 | 5494 ft | 255 kts | 347° |
| 2026-05-04 15:19 | 41.41044 | -8.72394 | 7137 ft | 266 kts | 347° |
| 2026-05-04 15:19 | 41.42914 | -8.72553 | 7955 ft | 274 kts | 1° |
| 2026-05-04 15:19 | 41.46716 | -8.71665 | 9622 ft | 284 kts | 7° |
| 2026-05-04 15:20 | 41.48707 | -8.71163 | 10337 ft | 291 kts | 7° |
| 2026-05-04 15:20 | 41.50750 | -8.70656 | 10627 ft | 314 kts | 7° |
| 2026-05-04 15:20 | 41.53005 | -8.70097 | 10843 ft | 337 kts | 7° |
| 2026-05-04 15:20 | 41.55323 | -8.69514 | 11334 ft | 348 kts | 7° |
| 2026-05-04 15:21 | 41.57745 | -8.68895 | 12036 ft | 353 kts | 8° |
| 2026-05-04 15:21 | 41.60172 | -8.68273 | 12754 ft | 357 kts | 7° |
| 2026-05-04 15:21 | 41.65078 | -8.67026 | 14159 ft | 364 kts | 7° |
| 2026-05-04 15:22 | 41.67583 | -8.66389 | 14783 ft | 368 kts | 7° |
| 2026-05-04 15:22 | 41.70113 | -8.65744 | 15404 ft | 372 kts | 7° |
| 2026-05-04 15:22 | 41.75247 | -8.64432 | 16625 ft | 379 kts | 6° |
| 2026-05-04 15:23 | 41.77854 | -8.63766 | 17210 ft | 383 kts | 6° |
| 2026-05-04 15:23 | 41.80486 | -8.63094 | 17797 ft | 387 kts | 6° |
| 2026-05-04 15:23 | 41.83141 | -8.62416 | 18377 ft | 391 kts | 6° |
| 2026-05-04 15:23 | 41.85824 | -8.61732 | 18878 ft | 394 kts | 6° |
| 2026-05-04 15:24 | 41.91257 | -8.60351 | 19886 ft | 401 kts | 6° |
| 2026-05-04 15:24 | 41.96788 | -8.58929 | 20864 ft | 407 kts | 6° |
| 2026-05-04 15:25 | 41.99574 | -8.58210 | 21359 ft | 410 kts | 6° |
| 2026-05-04 15:25 | 42.02386 | -8.57482 | 21876 ft | 412 kts | 6° |
| 2026-05-04 15:25 | 42.05214 | -8.56751 | 22323 ft | 415 kts | 5° |
| 2026-05-04 15:26 | 42.10951 | -8.55493 | 23269 ft | 419 kts | 2° |
| 2026-05-04 15:26 | 42.12873 | -8.55188 | 23569 ft | 420 kts | 1° |
| 2026-05-04 15:26 | 42.18731 | -8.54386 | 24299 ft | 426 kts | 0° |
| 2026-05-04 15:27 | 42.21684 | -8.53976 | 24653 ft | 429 kts | 1° |
| 2026-05-04 15:27 | 42.27642 | -8.53068 | 25371 ft | 433 kts | 1° |
| 2026-05-04 15:28 | 42.33670 | -8.52086 | 26018 ft | 439 kts | 2° |
| 2026-05-04 15:28 | 42.36719 | -8.51591 | 26367 ft | 442 kts | 2° |
| 2026-05-04 15:28 | 42.42871 | -8.50601 | 27043 ft | 447 kts | 1° |
| 2026-05-04 15:29 | 42.45971 | -8.50103 | 27355 ft | 450 kts | 1° |
| 2026-05-04 15:30 | 42.58112 | -8.44958 | 28496 ft | 473 kts | 21° |
| 2026-05-04 15:30 | 42.67080 | -8.39119 | 29351 ft | 480 kts | 21° |
| 2026-05-04 15:31 | 42.73173 | -8.35142 | 29986 ft | 484 kts | 22° |
| 2026-05-04 15:31 | 42.76169 | -8.33177 | 30295 ft | 485 kts | 22° |
| 2026-05-04 15:32 | 42.85344 | -8.27143 | 31174 ft | 485 kts | 22° |
| 2026-05-04 15:32 | 42.91374 | -8.23178 | 31880 ft | 483 kts | 22° |
| 2026-05-04 15:33 | 42.97407 | -8.19202 | 32615 ft | 480 kts | 22° |
| 2026-05-04 15:34 | 43.06250 | -8.13353 | 33668 ft | 476 kts | 22° |
| 2026-05-04 15:34 | 43.09229 | -8.11379 | 34021 ft | 475 kts | 22° |
| 2026-05-04 15:34 | 43.15163 | -8.07440 | 34625 ft | 473 kts | 22° |
| 2026-05-04 15:35 | 43.21074 | -8.03512 | 35152 ft | 471 kts | 23° |
| 2026-05-04 15:35 | 43.24022 | -8.01549 | 35396 ft | 471 kts | 23° |
| 2026-05-04 15:35 | 43.26970 | -7.99582 | 35648 ft | 471 kts | 23° |
| 2026-05-04 15:36 | 43.32855 | -7.95650 | 36020 ft | 471 kts | 23° |
| 2026-05-04 15:36 | 43.38749 | -7.91703 | 36056 ft | 471 kts | 23° |
| 2026-05-04 15:37 | 43.44649 | -7.87742 | 36049 ft | 471 kts | 23° |
| 2026-05-04 15:37 | 43.50536 | -7.83781 | 36043 ft | 471 kts | 23° |
| 2026-05-04 15:38 | 43.56424 | -7.79809 | 36043 ft | 471 kts | 23° |
| 2026-05-04 15:38 | 43.62308 | -7.75842 | 36048 ft | 470 kts | 24° |
| 2026-05-04 15:39 | 43.68183 | -7.71876 | 36043 ft | 470 kts | 24° |
| 2026-05-04 15:40 | 43.77015 | -7.65884 | 36041 ft | 471 kts | 24° |
| 2026-05-04 15:40 | 43.82282 | -7.62290 | 36052 ft | 470 kts | 24° |
| 2026-05-04 15:41 | 43.88148 | -7.58286 | 36039 ft | 470 kts | 24° |
| 2026-05-04 15:41 | 43.93456 | -7.54664 | 36027 ft | 470 kts | 24° |
| 2026-05-04 15:42 | 43.99263 | -7.50683 | 36036 ft | 470 kts | 24° |
| 2026-05-04 15:42 | 44.04042 | -7.47415 | 36025 ft | 469 kts | 24° |
| 2026-05-04 15:43 | 44.09741 | -7.43505 | 36013 ft | 474 kts | 24° |
| 2026-05-04 15:43 | 44.15450 | -7.39570 | 36008 ft | 483 kts | 24° |
| 2026-05-04 15:44 | 44.21426 | -7.35440 | 36009 ft | 488 kts | 25° |
| 2026-05-04 15:44 | 44.27514 | -7.31216 | 36008 ft | 489 kts | 25° |
| 2026-05-04 15:45 | 44.33602 | -7.26991 | 36007 ft | 488 kts | 25° |
| 2026-05-04 15:45 | 44.39605 | -7.22823 | 36016 ft | 489 kts | 25° |
| 2026-05-04 15:46 | 44.45359 | -7.18815 | 36012 ft | 489 kts | 25° |
| 2026-05-04 15:46 | 44.51452 | -7.14558 | 36009 ft | 489 kts | 25° |
| 2026-05-04 15:47 | 44.57537 | -7.10288 | 36014 ft | 489 kts | 25° |
| 2026-05-04 15:47 | 44.63629 | -7.06014 | 36010 ft | 489 kts | 25° |
| 2026-05-04 15:48 | 44.69719 | -7.01734 | 36012 ft | 489 kts | 25° |
| 2026-05-04 15:48 | 44.78858 | -6.95296 | 36014 ft | 490 kts | 25° |
| 2026-05-04 15:49 | 44.84832 | -6.90680 | 36015 ft | 490 kts | 34° |
| 2026-05-04 15:49 | 44.90370 | -6.85076 | 36008 ft | 491 kts | 35° |
| 2026-05-04 15:50 | 44.95925 | -6.79463 | 35997 ft | 491 kts | 35° |
| 2026-05-04 15:50 | 45.01485 | -6.73843 | 35997 ft | 491 kts | 35° |
| 2026-05-04 15:51 | 45.07028 | -6.68223 | 35994 ft | 490 kts | 35° |
| 2026-05-04 15:51 | 45.12563 | -6.62593 | 35994 ft | 490 kts | 35° |
| 2026-05-04 15:52 | 45.18103 | -6.56944 | 35991 ft | 490 kts | 35° |
| 2026-05-04 15:52 | 45.23616 | -6.51304 | 35989 ft | 491 kts | 36° |
| 2026-05-04 15:53 | 45.29150 | -6.45637 | 35989 ft | 491 kts | 36° |
| 2026-05-04 15:53 | 45.34685 | -6.39941 | 35989 ft | 491 kts | 36° |
| 2026-05-04 15:54 | 45.40218 | -6.34238 | 35988 ft | 491 kts | 36° |
| 2026-05-04 15:54 | 45.45747 | -6.28529 | 35996 ft | 491 kts | 36° |
| 2026-05-04 15:55 | 45.51229 | -6.22850 | 35990 ft | 491 kts | 36° |
| 2026-05-04 15:55 | 45.56793 | -6.17079 | 35987 ft | 491 kts | 36° |
| 2026-05-04 15:56 | 45.62282 | -6.11373 | 35992 ft | 492 kts | 36° |
| 2026-05-04 15:56 | 45.67814 | -6.05593 | 35994 ft | 492 kts | 36° |
| 2026-05-04 15:57 | 45.73351 | -5.99805 | 36002 ft | 492 kts | 36° |
| 2026-05-04 15:57 | 45.78865 | -5.94026 | 35998 ft | 491 kts | 36° |
| 2026-05-04 15:58 | 45.84381 | -5.88232 | 35996 ft | 491 kts | 37° |
| 2026-05-04 15:58 | 45.89895 | -5.82427 | 35998 ft | 491 kts | 37° |
| 2026-05-04 15:59 | 45.95405 | -5.76608 | 36003 ft | 491 kts | 37° |
| 2026-05-04 15:59 | 46.00881 | -5.70810 | 36002 ft | 491 kts | 37° |
| 2026-05-04 16:00 | 46.06415 | -5.64931 | 36008 ft | 491 kts | 37° |
| 2026-05-04 16:00 | 46.11872 | -5.59117 | 36013 ft | 491 kts | 37° |
| 2026-05-04 16:01 | 46.17393 | -5.53232 | 35993 ft | 490 kts | 37° |
| 2026-05-04 16:01 | 46.22845 | -5.47406 | 35998 ft | 491 kts | 37° |
| 2026-05-04 16:02 | 46.28321 | -5.41519 | 36000 ft | 491 kts | 37° |
| 2026-05-04 16:03 | 46.36544 | -5.32678 | 35990 ft | 491 kts | 37° |
| 2026-05-04 16:03 | 46.42021 | -5.26774 | 35991 ft | 490 kts | 37° |
| 2026-05-04 16:04 | 46.47493 | -5.20863 | 35980 ft | 490 kts | 38° |
| 2026-05-04 16:04 | 46.55680 | -5.11977 | 35987 ft | 491 kts | 38° |
| 2026-05-04 16:05 | 46.61138 | -5.06023 | 35985 ft | 491 kts | 38° |
| 2026-05-04 16:06 | 46.69335 | -4.97060 | 35997 ft | 491 kts | 38° |
| 2026-05-04 16:07 | 46.80263 | -4.85086 | 35995 ft | 491 kts | 38° |
| 2026-05-04 16:08 | 46.91180 | -4.73025 | 36001 ft | 491 kts | 38° |
| 2026-05-04 16:09 | 47.03871 | -4.58964 | 36008 ft | 490 kts | 38° |
| 2026-05-04 16:10 | 47.14711 | -4.46858 | 35996 ft | 488 kts | 39° |
| 2026-05-04 16:11 | 47.25498 | -4.34765 | 35993 ft | 487 kts | 39° |
| 2026-05-04 16:12 | 47.41668 | -4.16529 | 35998 ft | 488 kts | 39° |
| 2026-05-04 16:13 | 47.52435 | -4.04270 | 36001 ft | 489 kts | 39° |
| 2026-05-04 16:14 | 47.63209 | -3.91974 | 36006 ft | 489 kts | 39° |
| 2026-05-04 16:16 | 47.76611 | -3.76566 | 35991 ft | 489 kts | 39° |
| 2026-05-04 16:17 | 47.90052 | -3.61012 | 35991 ft | 490 kts | 39° |
| 2026-05-04 16:18 | 48.00804 | -3.48485 | 35989 ft | 490 kts | 39° |
| 2026-05-04 16:19 | 48.14233 | -3.32768 | 35979 ft | 490 kts | 39° |
| 2026-05-04 16:20 | 48.27636 | -3.16952 | 35994 ft | 490 kts | 39° |
| 2026-05-04 16:22 | 48.40719 | -3.01409 | 35980 ft | 488 kts | 39° |
| 2026-05-04 16:23 | 48.56693 | -2.82310 | 36002 ft | 488 kts | 40° |
| 2026-05-04 16:25 | 48.70859 | -2.65217 | 36007 ft | 488 kts | 40° |
| 2026-05-04 16:26 | 48.89285 | -2.43368 | 35989 ft | 490 kts | 39° |
| 2026-05-04 16:28 | 49.02795 | -2.27534 | 36005 ft | 490 kts | 39° |
| 2026-05-04 16:29 | 49.21694 | -2.05194 | 36000 ft | 492 kts | 36° |
| 2026-05-04 16:31 | 49.36603 | -1.92343 | 35999 ft | 494 kts | 30° |
| 2026-05-04 16:32 | 49.54601 | -1.76957 | 35998 ft | 492 kts | 30° |
| 2026-05-04 16:33 | 49.67113 | -1.68493 | 36011 ft | 492 kts | 20° |
| 2026-05-04 16:34 | 49.76791 | -1.63160 | 36017 ft | 492 kts | 20° |
| 2026-05-04 16:35 | 49.86416 | -1.57793 | 35795 ft | 486 kts | 20° |
| 2026-05-04 16:35 | 49.95816 | -1.52561 | 33570 ft | 484 kts | 21° |
| 2026-05-04 16:36 | 49.98357 | -1.51140 | 32806 ft | 485 kts | 21° |
| 2026-05-04 16:36 | 50.04786 | -1.47701 | 30750 ft | 494 kts | 19° |
| 2026-05-04 16:37 | 50.11386 | -1.44542 | 28758 ft | 496 kts | 18° |
| 2026-05-04 16:37 | 50.14526 | -1.43071 | 27961 ft | 492 kts | 18° |
| 2026-05-04 16:37 | 50.20942 | -1.40005 | 26501 ft | 481 kts | 18° |
| 2026-05-04 16:38 | 50.27249 | -1.36899 | 25125 ft | 468 kts | 18° |
| 2026-05-04 16:39 | 50.36377 | -1.32367 | 23261 ft | 450 kts | 18° |
| 2026-05-04 16:39 | 50.42277 | -1.29447 | 21918 ft | 440 kts | 18° |
| 2026-05-04 16:40 | 50.48039 | -1.26541 | 20617 ft | 430 kts | 22° |
| 2026-05-04 16:40 | 50.53042 | -1.21813 | 19806 ft | 409 kts | 41° |
| 2026-05-04 16:41 | 50.57246 | -1.16260 | 19660 ft | 398 kts | 41° |
| 2026-05-04 16:41 | 50.63654 | -1.07853 | 16594 ft | 389 kts | 41° |
| 2026-05-04 16:42 | 50.68991 | -0.98959 | 15152 ft | 369 kts | 51° |
| 2026-05-04 16:43 | 50.72219 | -0.92717 | 14139 ft | 366 kts | 51° |
| 2026-05-04 16:43 | 50.75400 | -0.86564 | 13476 ft | 351 kts | 51° |
| 2026-05-04 16:43 | 50.76914 | -0.83636 | 13340 ft | 338 kts | 51° |
| 2026-05-04 16:44 | 50.81539 | -0.71942 | 12559 ft | 304 kts | 80° |
| 2026-05-04 16:45 | 50.82289 | -0.65376 | 11800 ft | 302 kts | 80° |
| 2026-05-04 16:46 | 50.83417 | -0.55698 | 10990 ft | 294 kts | 80° |
| 2026-05-04 16:46 | 50.84159 | -0.49345 | 10999 ft | 294 kts | 80° |
| 2026-05-04 16:47 | 50.84883 | -0.43006 | 11004 ft | 294 kts | 81° |
| 2026-05-04 16:47 | 50.85594 | -0.36745 | 10997 ft | 277 kts | 81° |
| 2026-05-04 16:48 | 50.86569 | -0.28183 | 11002 ft | 259 kts | 81° |
| 2026-05-04 16:48 | 50.86885 | -0.25376 | 11006 ft | 259 kts | 81° |
| 2026-05-04 16:49 | 50.87517 | -0.19755 | 11006 ft | 259 kts | 81° |
| 2026-05-04 16:49 | 50.88146 | -0.14127 | 11000 ft | 260 kts | 81° |
| 2026-05-04 16:50 | 50.88861 | -0.08517 | 11002 ft | 261 kts | 67° |
| 2026-05-04 16:50 | 50.91130 | -0.05658 | 11003 ft | 263 kts | 7° |
| 2026-05-04 16:51 | 50.94227 | -0.07976 | 11003 ft | 260 kts | 302° |
| 2026-05-04 16:51 | 50.95184 | -0.10414 | 11001 ft | 261 kts | 300° |
| 2026-05-04 16:51 | 50.97058 | -0.15349 | 10998 ft | 262 kts | 300° |
| 2026-05-04 16:52 | 50.98846 | -0.20374 | 10995 ft | 261 kts | 285° |
| 2026-05-04 16:52 | 50.99002 | -0.23196 | 11006 ft | 258 kts | 259° |
| 2026-05-04 16:53 | 50.97098 | -0.27742 | 11001 ft | 254 kts | 209° |
| 2026-05-04 16:53 | 50.92199 | -0.26787 | 10225 ft | 250 kts | 134° |
| 2026-05-04 16:54 | 50.91262 | -0.24488 | 9929 ft | 251 kts | 110° |
| 2026-05-04 16:55 | 50.89489 | -0.13818 | 8559 ft | 248 kts | 104° |
| 2026-05-04 16:55 | 50.88833 | -0.08494 | 7886 ft | 246 kts | 84° |
| 2026-05-04 16:56 | 50.90713 | -0.04342 | 7213 ft | 242 kts | 21° |
| 2026-05-04 16:56 | 50.95183 | -0.06719 | 6999 ft | 243 kts | 322° |
| 2026-05-04 16:57 | 50.96510 | -0.08384 | 7000 ft | 243 kts | 321° |
| 2026-05-04 16:57 | 50.99157 | -0.11740 | 7001 ft | 243 kts | 321° |
| 2026-05-04 16:58 | 51.02029 | -0.18020 | 6675 ft | 241 kts | 283° |
| 2026-05-04 16:58 | 51.02370 | -0.20629 | 6343 ft | 240 kts | 281° |
| 2026-05-04 16:59 | 51.02990 | -0.25821 | 5659 ft | 238 kts | 281° |
| 2026-05-04 17:00 | 51.04148 | -0.35900 | 4712 ft | 217 kts | 282° |
| 2026-05-04 17:00 | 51.04994 | -0.42542 | 4285 ft | 192 kts | 303° |
| 2026-05-04 17:01 | 51.07234 | -0.44654 | 3626 ft | 191 kts | 345° |
| 2026-05-04 17:01 | 51.09782 | -0.45763 | 3200 ft | 189 kts | 346° |
| 2026-05-04 17:02 | 51.12050 | -0.44804 | 2848 ft | 185 kts | 66° |
| 2026-05-04 17:02 | 51.11700 | -0.40775 | 2756 ft | 191 kts | 91° |
| 2026-05-04 17:03 | 51.12021 | -0.38788 | 2525 ft | 186 kts | 68° |
| 2026-05-04 17:03 | 51.12359 | -0.36793 | 2279 ft | 187 kts | 76° |
| 2026-05-04 17:03 | 51.12903 | -0.32801 | 1774 ft | 178 kts | 76° |
| 2026-05-04 17:04 | 51.13398 | -0.29235 | 1331 ft | 160 kts | 76° |
| 2026-05-04 17:04 | 51.13872 | -0.25831 | 889 ft | 149 kts | 77° |
| 2026-05-04 17:05 | 51.14289 | -0.22831 | 502 ft | 134 kts | 77° |
| 2026-05-04 17:05 | 51.14679 | -0.20028 | 210 ft | 121 kts | 77° |
| 2026-05-04 17:06 | 51.14911 | -0.18339 | 203 ft | 34 kts | 77° |
| 2026-05-04 17:06 | 51.14971 | -0.17997 | 207 ft | 30 kts | 65° |
| 2026-05-04 17:07 | 51.15105 | -0.17755 | 208 ft | 0 kts | 355° |
| 2026-05-04 17:08 | 51.15108 | -0.17755 | 207 ft | 4 kts | 353° |
| 2026-05-04 17:08 | 51.15214 | -0.17776 | 209 ft | 0 kts | 351° |
| 2026-05-04 17:08 | 51.15218 | -0.17778 | 205 ft | 1 kts | 351° |
| 2026-05-04 17:09 | 51.15236 | -0.17778 | 204 ft | 6 kts | 7° |
| 2026-05-04 17:09 | 51.15269 | -0.17684 | 206 ft | 14 kts | 77° |
| 2026-05-04 17:09 | 51.15291 | -0.17512 | 211 ft | 17 kts | 79° |
| 2026-05-04 17:10 | 51.15474 | -0.17412 | 207 ft | 20 kts | 348° |
| 2026-05-04 17:10 | 51.15674 | -0.17484 | 204 ft | 0 kts | 348° |
| 2026-05-04 17:12 | 51.15693 | -0.17490 | 206 ft | 7 kts | 348° |
| 2026-05-04 17:12 | 51.15713 | -0.17626 | 210 ft | 9 kts | 165° |
| 2026-05-04 17:13 | 51.15654 | -0.17604 | 211 ft | 0 kts | 168° |